Como, Mississippi
Current Conditions -  °F | °C
As of 11:55 AM on Thursday 30 Oct 2014 (Local Time) from KUOX Reporting Station
Clear Clear  
Wind Chill: 17°   Ceiling: Unl
Heat Index: 17°   Visibility: 10mi
Dew Point:   Wind: 3mph
Humidity: 37%   Direction: 20°NNE
Pressure: 30.16"   Gusts: NA
Location:  34.51°N, 89.94°W
Report Text: KUOX 301655Z AUTO 02003KT 10SM CLR 17/02 A3016 RMK AO2 PWINO PNO
Loading
Personal Weather Stations






























Interactive Weather Map
Tropical Storm Tracking
New forecast layout! Learn more

10-Day Weather Forecast

Advertisements
Track Severe Weather on mobile